createdAt,value
2019-03-23T00:00:38.208Z,9.10
2019-03-23T00:01:38.187Z,9.70
2019-03-23T00:02:38.190Z,8.80
2019-03-23T00:03:38.161Z,8.60
2019-03-23T00:04:38.155Z,12.30
2019-03-23T00:05:38.143Z,11.20
2019-03-23T00:06:38.147Z,10.30
2019-03-23T00:07:38.121Z,9.70
2019-03-23T00:08:38.110Z,9.30
2019-03-23T00:09:38.098Z,10.60
2019-03-23T00:10:38.090Z,9.00
2019-03-23T00:11:38.083Z,9.20
2019-03-23T00:12:38.086Z,8.80
2019-03-23T00:13:38.055Z,8.70
2019-03-23T00:14:38.047Z,8.80
2019-03-23T00:15:38.034Z,9.00
2019-03-23T00:16:38.022Z,8.70
2019-03-23T00:17:38.016Z,10.30
2019-03-23T00:18:38.020Z,9.80
2019-03-23T00:19:37.991Z,9.40
2019-03-23T00:20:37.981Z,11.00
2019-03-23T00:21:37.986Z,11.70
2019-03-23T00:22:37.962Z,10.80
2019-03-23T00:23:37.947Z,9.70
2019-03-23T00:24:37.954Z,11.50
2019-03-23T00:25:37.931Z,11.90
2019-03-23T00:26:37.919Z,12.90
2019-03-23T00:27:37.907Z,12.40
2019-03-23T00:28:37.897Z,10.70
2019-03-23T00:29:37.894Z,12.00
2019-03-23T00:30:37.898Z,12.10
2019-03-23T00:31:37.865Z,12.80
2019-03-23T00:32:37.858Z,11.90
2019-03-23T00:33:37.843Z,11.60
2019-03-23T00:34:37.840Z,12.50
2019-03-23T00:35:37.833Z,12.60
2019-03-23T00:36:41.671Z,11.60
2019-03-23T00:37:37.808Z,14.10
2019-03-23T00:38:37.792Z,14.00
2019-03-23T00:39:37.783Z,14.30
2019-03-23T00:40:37.775Z,11.90
2019-03-23T00:41:37.767Z,12.90
2019-03-23T00:42:37.792Z,12.60
2019-03-23T00:43:37.744Z,12.90
2019-03-23T00:44:37.732Z,12.60
2019-03-23T00:45:37.720Z,14.10
2019-03-23T00:46:37.709Z,12.40
2019-03-23T00:47:37.703Z,12.70
2019-03-23T00:48:37.721Z,12.50
2019-03-23T00:49:37.679Z,13.30
2019-03-23T00:50:37.670Z,12.50
2019-03-23T00:51:37.658Z,12.90
2019-03-23T00:52:37.649Z,11.60
2019-03-23T00:53:37.638Z,12.30
2019-03-23T00:54:37.654Z,12.60
2019-03-23T00:55:37.620Z,12.30
2019-03-23T00:56:37.611Z,14.20
2019-03-23T00:57:37.598Z,11.80
2019-03-23T00:58:37.587Z,12.30
2019-03-23T00:59:37.585Z,11.60
2019-03-23T01:00:37.580Z,11.30
2019-03-23T01:01:37.558Z,11.70
2019-03-23T01:02:37.543Z,13.20
2019-03-23T01:03:37.538Z,12.70
2019-03-23T01:04:37.526Z,11.90
2019-03-23T01:05:37.517Z,11.80
2019-03-23T01:06:37.524Z,12.00
2019-03-23T01:07:37.495Z,14.60
2019-03-23T01:08:37.490Z,11.20
2019-03-23T01:09:37.484Z,12.30
2019-03-23T01:10:37.466Z,10.90
2019-03-23T01:11:37.452Z,11.70
2019-03-23T01:12:37.456Z,12.70
2019-03-23T01:13:37.436Z,12.60
2019-03-23T01:14:37.428Z,11.80
2019-03-23T01:15:37.410Z,12.40
2019-03-23T01:16:53.219Z,13.20
2019-03-23T01:17:37.391Z,13.70
2019-03-23T01:18:37.403Z,12.90
2019-03-23T01:19:37.371Z,12.10
2019-03-23T01:20:37.365Z,12.20
2019-03-23T01:21:37.349Z,14.50
2019-03-23T01:22:37.360Z,13.60
2019-03-23T01:23:37.333Z,13.20
2019-03-23T01:24:37.337Z,14.10
2019-03-23T01:25:37.313Z,13.60
2019-03-23T01:26:37.300Z,13.60
2019-03-23T01:27:37.288Z,14.40
2019-03-23T01:28:37.279Z,13.10
2019-03-23T01:29:37.274Z,13.40
2019-03-23T01:30:37.274Z,13.20
2019-03-23T01:31:37.249Z,15.40
2019-03-23T01:32:37.239Z,13.80
2019-03-23T01:33:37.253Z,15.70
2019-03-23T01:34:37.218Z,14.10
2019-03-23T01:35:37.207Z,14.80
2019-03-23T01:36:37.215Z,14.70
2019-03-23T01:37:37.187Z,13.80
2019-03-23T01:38:37.174Z,14.70
2019-03-23T01:39:37.168Z,13.50
2019-03-23T01:40:37.157Z,14.60
2019-03-23T01:41:37.143Z,13.00
2019-03-23T01:42:37.159Z,15.60
2019-03-23T01:43:37.124Z,14.50
2019-03-23T01:44:37.112Z,16.30
2019-03-23T01:45:37.109Z,15.80
2019-03-23T01:46:37.092Z,14.50
2019-03-23T01:47:37.087Z,14.10
2019-03-23T01:48:37.086Z,15.80
2019-03-23T01:49:37.062Z,16.20
2019-03-23T01:50:37.049Z,15.10
2019-03-23T01:51:37.042Z,15.80
2019-03-23T01:52:37.050Z,16.10
2019-03-23T01:53:37.024Z,16.40
2019-03-23T01:54:37.028Z,17.00
2019-03-23T01:55:36.998Z,14.60
2019-03-23T01:56:36.990Z,16.40
2019-03-23T01:57:36.983Z,16.50
2019-03-23T01:58:36.966Z,16.10
2019-03-23T01:59:36.964Z,16.10
2019-03-23T02:00:36.974Z,17.50
2019-03-23T02:01:36.938Z,18.40
2019-03-23T02:02:36.922Z,15.20
2019-03-23T02:03:36.915Z,14.80
2019-03-23T02:04:36.904Z,17.10
2019-03-23T02:05:36.896Z,16.50
2019-03-23T02:06:36.896Z,18.40
2019-03-23T02:07:36.880Z,17.80
2019-03-23T02:08:36.871Z,15.50
2019-03-23T02:09:36.852Z,17.90
2019-03-23T02:10:36.840Z,16.40
2019-03-23T02:11:36.837Z,15.80
2019-03-23T02:12:36.837Z,19.70
2019-03-23T02:13:36.821Z,20.10
2019-03-23T02:14:36.802Z,17.60
2019-03-23T02:15:36.791Z,18.40
2019-03-23T02:16:36.778Z,20.30
2019-03-23T02:17:36.770Z,18.30
2019-03-23T02:18:36.773Z,19.30
2019-03-23T02:19:36.750Z,18.40
2019-03-23T02:20:36.741Z,20.90
2019-03-23T02:21:36.729Z,18.60
2019-03-23T02:22:36.716Z,21.60
2019-03-23T02:23:36.707Z,17.70
2019-03-23T02:24:36.716Z,21.20
2019-03-23T02:25:36.685Z,20.20
2019-03-23T02:26:36.675Z,20.20
2019-03-23T02:27:36.667Z,22.80
2019-03-23T02:28:36.662Z,19.50
2019-03-23T02:29:36.644Z,20.20
2019-03-23T02:30:36.654Z,21.70
2019-03-23T02:31:36.626Z,21.30
2019-03-23T02:32:36.617Z,21.40
2019-03-23T02:33:36.609Z,20.10
2019-03-23T02:34:36.603Z,21.30
2019-03-23T02:35:36.584Z,19.80
2019-03-23T02:36:36.593Z,21.60
2019-03-23T02:37:36.566Z,19.70
2019-03-23T02:38:36.559Z,23.10
2019-03-23T02:39:36.543Z,22.10
2019-03-23T02:40:36.535Z,22.10
2019-03-23T02:41:36.527Z,24.80
2019-03-23T02:42:36.549Z,21.90
2019-03-23T02:43:36.502Z,20.70
2019-03-23T02:44:36.500Z,20.60
2019-03-23T02:45:36.484Z,25.30
2019-03-23T02:46:36.475Z,23.80
2019-03-23T02:47:36.518Z,25.40
2019-03-23T02:48:36.468Z,25.00
2019-03-23T02:49:36.463Z,23.90
2019-03-23T02:50:36.453Z,25.90
2019-03-23T02:51:39.599Z,24.00
2019-03-23T02:52:36.416Z,23.40
2019-03-23T02:53:36.403Z,24.10
2019-03-23T02:54:36.412Z,23.00
2019-03-23T02:55:36.381Z,25.40
2019-03-23T02:56:36.374Z,25.40
2019-03-23T02:57:36.372Z,26.80
2019-03-23T02:58:36.366Z,27.10
2019-03-23T02:59:36.342Z,26.50
2019-03-23T03:00:36.340Z,25.70
2019-03-23T03:01:36.322Z,24.50
2019-03-23T03:02:36.305Z,25.50
2019-03-23T03:03:36.302Z,25.30
2019-03-23T03:04:36.291Z,30.20
2019-03-23T03:05:36.275Z,25.80
2019-03-23T03:06:36.299Z,27.70
2019-03-23T03:07:42.725Z,27.50
2019-03-23T03:08:37.334Z,28.40
2019-03-23T03:09:36.233Z,27.10
2019-03-23T03:10:36.226Z,28.00
2019-03-23T03:11:36.214Z,26.50
2019-03-23T03:12:36.215Z,29.20
2019-03-23T03:13:36.199Z,28.30
2019-03-23T03:14:36.178Z,28.80
2019-03-23T03:15:36.169Z,28.20
2019-03-23T03:16:36.157Z,27.00
2019-03-23T03:17:36.144Z,29.10
2019-03-23T03:18:36.151Z,29.50
2019-03-23T03:19:36.128Z,29.60
2019-03-23T03:20:36.123Z,30.60
2019-03-23T03:21:36.104Z,29.50
2019-03-23T03:22:36.095Z,30.40
2019-03-23T03:23:36.085Z,30.80
2019-03-23T03:24:36.088Z,29.80
2019-03-23T03:25:36.060Z,28.00
2019-03-23T03:26:36.051Z,28.40
2019-03-23T03:27:36.033Z,31.60
2019-03-23T03:28:36.026Z,29.30
2019-03-23T03:29:36.017Z,31.60
2019-03-23T03:30:36.031Z,33.60
2019-03-23T03:31:35.994Z,35.20
2019-03-23T03:32:35.983Z,39.50
2019-03-23T03:33:35.977Z,42.50
2019-03-23T03:34:35.968Z,43.20
2019-03-23T03:35:35.951Z,40.30
2019-03-23T03:36:35.958Z,44.60
2019-03-23T03:37:35.935Z,48.60
2019-03-23T03:38:35.924Z,44.60
2019-03-23T03:39:35.921Z,44.10
2019-03-23T03:40:35.917Z,46.10
2019-03-23T03:41:35.888Z,45.10
2019-03-23T03:42:35.901Z,44.90
2019-03-23T03:43:35.872Z,43.30
2019-03-23T03:44:35.852Z,42.20
2019-03-23T03:45:35.843Z,44.80
2019-03-23T03:46:35.837Z,42.50
2019-03-23T03:47:35.842Z,42.30
2019-03-23T03:48:35.831Z,41.90
2019-03-23T03:49:35.799Z,44.40
2019-03-23T03:50:35.787Z,42.40
2019-03-23T03:51:35.775Z,42.80
2019-03-23T03:52:35.766Z,43.90
2019-03-23T03:53:35.761Z,44.20
2019-03-23T03:54:35.764Z,47.00
2019-03-23T03:55:35.738Z,51.30
2019-03-23T03:56:35.723Z,55.40
2019-03-23T03:57:35.724Z,57.00
2019-03-23T03:58:35.702Z,56.40
2019-03-23T03:59:35.696Z,60.50
2019-03-23T04:00:35.696Z,62.20
2019-03-23T04:01:35.680Z,69.20
2019-03-23T04:02:35.661Z,71.20
2019-03-23T04:03:35.655Z,73.80
2019-03-23T04:04:35.640Z,72.00
2019-03-23T04:05:35.640Z,73.50
2019-03-23T04:06:35.640Z,78.90
2019-03-23T04:07:35.605Z,78.20
2019-03-23T04:08:35.600Z,84.70
2019-03-23T04:09:35.591Z,85.10
2019-03-23T04:10:35.575Z,84.60
2019-03-23T04:11:35.564Z,87.40
2019-03-23T04:12:35.568Z,84.40
2019-03-23T04:13:35.550Z,90.90
2019-03-23T04:14:35.539Z,93.30
2019-03-23T04:15:35.525Z,97.90
2019-03-23T04:16:35.514Z,94.60
2019-03-23T04:17:35.509Z,95.50
2019-03-23T04:18:35.515Z,96.10
2019-03-23T04:19:35.484Z,97.10
2019-03-23T04:20:35.473Z,96.20
2019-03-23T04:21:35.523Z,93.70
2019-03-23T04:22:35.459Z,94.60
2019-03-23T04:23:35.443Z,90.30
2019-03-23T04:24:35.459Z,87.80
2019-03-23T04:25:35.424Z,92.70
2019-03-23T04:26:35.412Z,91.70
2019-03-23T04:27:35.402Z,100.00
2019-03-23T04:28:35.389Z,99.10
2019-03-23T04:29:35.384Z,108.00
2019-03-23T04:30:35.390Z,101.50
2019-03-23T04:31:35.361Z,112.10
2019-03-23T04:32:35.347Z,117.00
2019-03-23T04:33:35.342Z,114.80
2019-03-23T04:34:35.328Z,136.00
2019-03-23T04:35:35.320Z,140.40
2019-03-23T04:36:35.346Z,142.60
2019-03-23T04:37:36.211Z,165.10
2019-03-23T04:38:35.289Z,167.40
2019-03-23T04:39:35.279Z,186.10
2019-03-23T04:40:35.265Z,198.00
2019-03-23T04:41:35.260Z,192.60
2019-03-23T04:42:35.255Z,181.60
2019-03-23T04:43:35.235Z,185.80
2019-03-23T04:44:35.222Z,183.00
2019-03-23T04:45:35.216Z,185.00
2019-03-23T04:46:35.202Z,189.20
2019-03-23T04:47:35.196Z,179.70
2019-03-23T04:48:35.221Z,171.70
2019-03-23T04:49:35.172Z,207.30
2019-03-23T04:50:35.162Z,207.30
2019-03-23T04:51:35.158Z,201.10
2019-03-23T04:52:35.135Z,201.20
2019-03-23T04:53:35.131Z,223.30
2019-03-23T04:54:35.137Z,251.70
2019-03-23T04:55:35.109Z,276.90
2019-03-23T04:56:35.097Z,261.80
2019-03-23T04:57:35.088Z,270.00
2019-03-23T04:58:35.085Z,247.20
2019-03-23T04:59:35.067Z,257.80
2019-03-23T05:00:35.079Z,285.30
2019-03-23T05:01:35.042Z,289.30
2019-03-23T05:02:35.033Z,304.50
2019-03-23T05:03:35.025Z,301.20
2019-03-23T05:04:35.009Z,307.10
2019-03-23T05:05:35.000Z,371.40
2019-03-23T05:06:35.004Z,344.90
2019-03-23T05:07:34.980Z,374.10
2019-03-23T05:08:34.975Z,367.90
2019-03-23T05:09:34.960Z,372.30
2019-03-23T05:10:34.948Z,325.80
2019-03-23T05:11:34.938Z,397.90
2019-03-23T05:12:34.955Z,463.80
2019-03-23T05:13:34.917Z,478.40
2019-03-23T05:14:34.915Z,417.50
2019-03-23T05:15:34.893Z,441.50
2019-03-23T05:16:34.887Z,462.20
2019-03-23T05:17:34.874Z,531.80
2019-03-23T05:18:34.880Z,507.60
2019-03-23T05:19:34.857Z,643.30
2019-03-23T05:20:34.841Z,589.80
2019-03-23T05:21:34.833Z,523.80
2019-03-23T05:22:34.821Z,540.70
2019-03-23T05:23:34.813Z,600.90
2019-03-23T05:24:34.813Z,651.10
2019-03-23T05:25:34.791Z,577.70
2019-03-23T05:26:34.780Z,619.20
2019-03-23T05:27:34.774Z,538.20
2019-03-23T05:28:34.765Z,714.00
2019-03-23T05:29:34.751Z,780.60
2019-03-23T05:30:34.762Z,625.90
2019-03-23T05:31:34.734Z,530.80
2019-03-23T05:32:34.720Z,667.40
2019-03-23T05:33:34.708Z,720.80
2019-03-23T05:34:34.696Z,664.80
2019-03-23T05:35:34.693Z,476.20
2019-03-23T05:36:34.705Z,620.90
2019-03-23T05:37:34.667Z,628.70
2019-03-23T05:38:43.819Z,590.60
2019-03-23T05:39:35.643Z,662.90
2019-03-23T05:40:34.638Z,679.10
2019-03-23T05:41:34.625Z,539.20
2019-03-23T05:42:34.631Z,781.90
2019-03-23T05:43:34.603Z,805.50
2019-03-23T05:44:34.601Z,547.40
2019-03-23T05:45:34.582Z,658.40
2019-03-23T05:46:34.581Z,497.30
2019-03-23T05:47:34.563Z,775.80
2019-03-23T05:48:34.572Z,701.30
2019-03-23T05:49:34.540Z,551.30
2019-03-23T05:50:34.535Z,715.70
2019-03-23T05:51:34.518Z,739.70
2019-03-23T05:52:34.509Z,921.00
2019-03-23T05:53:34.501Z,1013.50
2019-03-23T05:54:34.515Z,853.30
2019-03-23T05:55:34.495Z,1026.20
2019-03-23T05:56:34.471Z,972.40
2019-03-23T05:57:34.457Z,1166.40
2019-03-23T05:58:34.457Z,1362.90
2019-03-23T05:59:34.443Z,1121.70
2019-03-23T06:00:34.447Z,1283.20
2019-03-23T06:01:34.420Z,1050.50
2019-03-23T06:02:34.407Z,1099.10
2019-03-23T06:03:34.398Z,1048.50
2019-03-23T06:04:34.394Z,1038.40
2019-03-23T06:05:34.375Z,1128.70
2019-03-23T06:06:34.384Z,1238.10
2019-03-23T06:07:34.353Z,1071.70
2019-03-23T06:08:34.346Z,1119.10
2019-03-23T06:09:34.337Z,1212.80
2019-03-23T06:10:34.320Z,1258.80
2019-03-23T06:11:34.311Z,1445.30
2019-03-23T06:12:34.319Z,1566.30
2019-03-23T06:13:34.290Z,1097.60
2019-03-23T06:14:34.284Z,915.00
2019-03-23T06:15:34.268Z,1158.70
2019-03-23T06:16:34.262Z,1371.90
2019-03-23T06:17:34.250Z,1264.80
2019-03-23T06:18:34.260Z,1569.30
2019-03-23T06:19:34.228Z,1155.70
2019-03-23T06:20:34.254Z,1150.90
2019-03-23T06:21:34.207Z,1202.90
2019-03-23T06:22:34.203Z,1453.00
2019-03-23T06:23:34.187Z,1182.60
2019-03-23T06:24:34.189Z,1330.80
2019-03-23T06:25:34.165Z,1276.90
2019-03-23T06:26:34.156Z,1108.90
2019-03-23T06:27:34.143Z,1139.80
2019-03-23T06:28:34.133Z,1085.20
2019-03-23T06:29:34.119Z,1160.50
2019-03-23T06:30:34.138Z,1134.80
2019-03-23T06:31:34.099Z,1254.90
2019-03-23T06:32:34.092Z,1040.60
2019-03-23T06:33:34.080Z,1547.00
2019-03-23T06:34:34.068Z,1075.60
2019-03-23T06:35:34.061Z,1259.80
2019-03-23T06:36:34.074Z,1251.80
2019-03-23T06:37:34.037Z,1133.10
2019-03-23T06:38:34.018Z,1205.30
2019-03-23T06:39:34.009Z,1103.70
2019-03-23T06:40:33.997Z,1088.10
2019-03-23T06:41:33.988Z,1211.60
2019-03-23T06:42:33.996Z,732.20
2019-03-23T06:43:33.964Z,1053.70
2019-03-23T06:44:33.954Z,991.20
2019-03-23T06:45:33.947Z,905.20
2019-03-23T06:46:33.931Z,923.70
2019-03-23T06:47:33.923Z,955.30
2019-03-23T06:48:33.940Z,926.40
2019-03-23T06:49:33.898Z,1004.30
2019-03-23T06:50:33.889Z,1008.80
2019-03-23T06:51:33.884Z,988.50
2019-03-23T06:52:33.869Z,952.60
2019-03-23T06:53:33.857Z,989.90
2019-03-23T06:54:33.870Z,1060.00
2019-03-23T06:55:33.834Z,1014.10
2019-03-23T06:56:33.823Z,831.80
2019-03-23T06:57:33.813Z,788.80
2019-03-23T06:58:33.804Z,1104.40
2019-03-23T06:59:33.800Z,914.30
2019-03-23T07:00:33.804Z,885.30
2019-03-23T07:01:33.770Z,856.70
2019-03-23T07:02:33.764Z,920.70
2019-03-23T07:03:33.745Z,772.40
2019-03-23T07:04:33.739Z,916.50
2019-03-23T07:05:33.724Z,799.90
2019-03-23T07:06:33.735Z,850.10
2019-03-23T07:07:33.701Z,685.60
2019-03-23T07:08:33.695Z,753.90
2019-03-23T07:09:33.688Z,816.60
2019-03-23T07:10:33.666Z,866.50
2019-03-23T07:11:33.661Z,729.60
2019-03-23T07:12:33.664Z,700.70
2019-03-23T07:13:33.634Z,678.90
2019-03-23T07:14:33.627Z,831.10
2019-03-23T07:15:33.609Z,859.40
2019-03-23T07:16:33.602Z,761.00
2019-03-23T07:17:33.587Z,859.70
2019-03-23T07:18:33.595Z,767.30
2019-03-23T07:19:33.565Z,836.30
2019-03-23T07:20:33.560Z,683.70
2019-03-23T07:21:33.545Z,900.40
2019-03-23T07:22:33.532Z,852.70
2019-03-23T07:23:33.525Z,925.60
2019-03-23T07:24:33.528Z,851.50
2019-03-23T07:25:33.501Z,837.90
2019-03-23T07:26:33.486Z,687.20
2019-03-23T07:27:33.472Z,827.90
2019-03-23T07:28:33.463Z,857.90
2019-03-23T07:29:33.454Z,793.30
2019-03-23T07:30:33.459Z,771.60
2019-03-23T07:31:33.433Z,700.40
2019-03-23T07:32:33.415Z,775.30
2019-03-23T07:33:33.415Z,741.30
2019-03-23T07:34:33.395Z,698.90
2019-03-23T07:35:33.391Z,718.60
2019-03-23T07:36:33.392Z,695.90
2019-03-23T07:37:33.365Z,702.00
2019-03-23T07:38:33.358Z,623.00
2019-03-23T07:39:33.350Z,693.40
2019-03-23T07:40:33.334Z,692.90
2019-03-23T07:41:33.317Z,628.70
2019-03-23T07:42:33.320Z,597.30
2019-03-23T07:43:33.302Z,581.30
2019-03-23T07:44:33.288Z,636.40
2019-03-23T07:45:33.272Z,566.60
2019-03-23T07:46:33.258Z,641.20
2019-03-23T07:47:33.254Z,584.40
2019-03-23T07:48:33.257Z,650.10
2019-03-23T07:49:33.231Z,553.10
2019-03-23T07:50:33.215Z,566.70
2019-03-23T07:51:33.203Z,508.90
2019-03-23T07:52:33.200Z,579.10
2019-03-23T07:53:33.187Z,559.60
2019-03-23T07:54:33.187Z,544.20
2019-03-23T07:55:33.157Z,550.00
2019-03-23T07:56:33.151Z,571.50
2019-03-23T07:57:33.194Z,544.80
2019-03-23T07:58:33.132Z,488.60
2019-03-23T07:59:33.113Z,540.90
2019-03-23T08:00:33.127Z,592.50
2019-03-23T08:01:33.142Z,586.50
2019-03-23T08:02:33.082Z,559.00
2019-03-23T08:03:33.073Z,536.10
2019-03-23T08:04:33.058Z,471.10
2019-03-23T08:05:33.050Z,501.10
2019-03-23T08:06:33.065Z,433.00
2019-03-23T08:07:33.029Z,466.00
2019-03-23T08:08:33.011Z,519.60
2019-03-23T08:09:37.634Z,538.80
2019-03-23T08:10:33.991Z,444.20
2019-03-23T08:11:32.977Z,454.40
2019-03-23T08:12:32.981Z,443.60
2019-03-23T08:13:32.988Z,441.10
2019-03-23T08:14:32.945Z,471.30
2019-03-23T08:15:32.935Z,414.80
2019-03-23T08:16:32.919Z,432.60
2019-03-23T08:17:32.913Z,396.60
2019-03-23T08:18:32.914Z,386.10
2019-03-23T08:19:32.885Z,365.80
2019-03-23T08:20:32.876Z,429.10
2019-03-23T08:21:32.869Z,456.90
2019-03-23T08:22:32.853Z,421.40
2019-03-23T08:23:32.840Z,446.20
2019-03-23T08:24:32.846Z,385.20
2019-03-23T08:25:32.821Z,405.10
2019-03-23T08:26:32.807Z,438.90
2019-03-23T08:27:32.798Z,363.90
2019-03-23T08:28:32.783Z,364.50
2019-03-23T08:29:32.771Z,368.10
2019-03-23T08:30:32.796Z,388.60
2019-03-23T08:31:32.751Z,399.00
2019-03-23T08:32:32.739Z,325.20
2019-03-23T08:33:32.727Z,320.70
2019-03-23T08:34:32.716Z,319.80
2019-03-23T08:35:32.704Z,310.00
2019-03-23T08:36:32.707Z,304.90
2019-03-23T08:37:32.680Z,300.20
2019-03-23T08:38:32.671Z,306.30
2019-03-23T08:39:32.657Z,313.70
2019-03-23T08:40:32.656Z,309.60
2019-03-23T08:41:32.642Z,304.40
2019-03-23T08:42:34.910Z,317.90
2019-03-23T08:43:32.617Z,287.40
2019-03-23T08:44:32.602Z,288.90
2019-03-23T08:45:32.593Z,297.50
2019-03-23T08:46:32.584Z,280.60
2019-03-23T08:47:32.579Z,271.40
2019-03-23T08:48:32.574Z,258.70
2019-03-23T08:49:32.550Z,283.80
2019-03-23T08:50:32.540Z,254.10
2019-03-23T08:51:32.525Z,259.50
2019-03-23T08:52:32.513Z,263.80
2019-03-23T08:53:32.499Z,248.40
2019-03-23T08:54:32.505Z,243.80
2019-03-23T08:55:32.484Z,258.90
2019-03-23T08:56:32.466Z,251.80
2019-03-23T08:57:32.453Z,248.00
2019-03-23T08:58:32.443Z,255.10
2019-03-23T08:59:32.430Z,249.70
2019-03-23T09:00:32.445Z,244.10
2019-03-23T09:01:32.415Z,243.40
2019-03-23T09:02:32.396Z,243.90
2019-03-23T09:03:32.386Z,245.70
2019-03-23T09:04:32.379Z,240.10
2019-03-23T09:05:32.368Z,250.10
2019-03-23T09:06:32.370Z,235.10
2019-03-23T09:07:32.338Z,237.70
2019-03-23T09:08:32.329Z,239.70
2019-03-23T09:09:32.320Z,239.40
2019-03-23T09:10:32.313Z,236.00
2019-03-23T09:11:32.293Z,240.00
2019-03-23T09:12:32.306Z,239.50
2019-03-23T09:13:40.238Z,231.60
2019-03-23T09:14:33.264Z,224.40
2019-03-23T09:15:32.255Z,231.80
2019-03-23T09:16:32.238Z,237.40
2019-03-23T09:17:32.231Z,239.20
2019-03-23T09:18:32.231Z,238.80
2019-03-23T09:19:32.205Z,236.20
2019-03-23T09:20:32.194Z,245.60
2019-03-23T09:21:32.185Z,238.70
2019-03-23T09:22:32.171Z,242.70
2019-03-23T09:23:32.157Z,239.40
2019-03-23T09:24:32.195Z,252.00
2019-03-23T09:25:32.145Z,239.20
2019-03-23T09:26:32.126Z,238.60
2019-03-23T09:27:32.116Z,238.90
2019-03-23T09:28:32.102Z,246.90
2019-03-23T09:29:32.088Z,227.90
2019-03-23T09:30:32.099Z,236.80
2019-03-23T09:31:32.068Z,224.90
2019-03-23T09:32:32.057Z,205.20
2019-03-23T09:33:32.046Z,214.10
2019-03-23T09:34:32.035Z,193.30
2019-03-23T09:35:32.024Z,199.10
2019-03-23T09:36:32.029Z,203.00
2019-03-23T09:37:31.996Z,186.50
2019-03-23T09:38:31.986Z,197.10
2019-03-23T09:39:31.975Z,189.40
2019-03-23T09:40:31.961Z,191.90
2019-03-23T09:41:31.951Z,204.90
2019-03-23T09:42:31.953Z,200.30
2019-03-23T09:43:31.929Z,201.70
2019-03-23T09:44:31.915Z,195.20
2019-03-23T09:45:31.905Z,191.40
2019-03-23T09:46:31.894Z,191.50
2019-03-23T09:47:31.883Z,185.60
2019-03-23T09:48:31.886Z,195.00
2019-03-23T09:49:31.854Z,183.50
2019-03-23T09:50:31.847Z,183.00
2019-03-23T09:51:31.833Z,176.90
2019-03-23T09:52:31.826Z,167.60
2019-03-23T09:53:31.811Z,167.20
2019-03-23T09:54:31.815Z,169.40
2019-03-23T09:55:31.786Z,171.80
2019-03-23T09:56:31.778Z,169.10
2019-03-23T09:57:31.767Z,160.70
2019-03-23T09:58:31.756Z,161.60
2019-03-23T09:59:31.739Z,172.00
2019-03-23T10:00:31.743Z,176.80
2019-03-23T10:01:31.716Z,161.60
2019-03-23T10:02:31.709Z,163.80
2019-03-23T10:03:31.692Z,169.70
2019-03-23T10:04:31.680Z,173.30
2019-03-23T10:05:31.668Z,171.50
2019-03-23T10:06:31.677Z,163.30
2019-03-23T10:07:31.648Z,176.50
2019-03-23T10:08:31.634Z,161.70
2019-03-23T10:09:31.619Z,161.20
2019-03-23T10:10:31.606Z,150.90
2019-03-23T10:11:31.619Z,158.90
2019-03-23T10:12:31.599Z,153.50
2019-03-23T10:13:31.570Z,154.00
2019-03-23T10:14:31.559Z,156.90
2019-03-23T10:15:31.548Z,160.80
2019-03-23T10:16:31.535Z,160.50
2019-03-23T10:17:31.523Z,159.10
2019-03-23T10:18:31.579Z,160.00
2019-03-23T10:19:31.496Z,157.50
2019-03-23T10:20:31.486Z,164.40
2019-03-23T10:21:31.471Z,167.50
2019-03-23T10:22:31.467Z,159.30
2019-03-23T10:23:31.455Z,160.80
2019-03-23T10:24:31.456Z,161.60
2019-03-23T10:25:31.426Z,159.00
2019-03-23T10:26:31.452Z,157.70
2019-03-23T10:27:31.404Z,163.20
2019-03-23T10:28:31.392Z,155.60
2019-03-23T10:29:31.377Z,156.70
2019-03-23T10:30:31.383Z,161.90
2019-03-23T10:31:31.350Z,171.90
2019-03-23T10:32:31.342Z,161.10
2019-03-23T10:33:31.330Z,163.00
2019-03-23T10:34:31.313Z,165.60
2019-03-23T10:35:31.320Z,161.30
2019-03-23T10:36:31.305Z,160.20
2019-03-23T10:37:31.283Z,163.40
2019-03-23T10:38:31.270Z,163.30
2019-03-23T10:39:31.253Z,141.90
2019-03-23T10:40:32.773Z,154.70
2019-03-23T10:41:31.228Z,150.60
2019-03-23T10:42:31.230Z,146.70
2019-03-23T10:43:31.202Z,141.20
2019-03-23T10:44:31.193Z,143.90
2019-03-23T10:45:31.179Z,138.70
2019-03-23T10:46:31.167Z,140.90
2019-03-23T10:47:31.255Z,143.60
2019-03-23T10:48:31.165Z,140.00
2019-03-23T10:49:31.132Z,140.70
2019-03-23T10:50:31.115Z,139.90
2019-03-23T10:51:31.111Z,132.30
2019-03-23T10:52:31.093Z,133.90
2019-03-23T10:53:31.084Z,130.00
2019-03-23T10:54:31.086Z,127.70
2019-03-23T10:55:31.057Z,129.60
2019-03-23T10:56:31.057Z,137.20
2019-03-23T10:57:31.033Z,130.80
2019-03-23T10:58:31.021Z,130.90
2019-03-23T10:59:31.007Z,131.30
2019-03-23T11:00:31.014Z,136.10
2019-03-23T11:01:30.980Z,132.40
2019-03-23T11:02:30.970Z,138.80
2019-03-23T11:03:30.961Z,139.60
2019-03-23T11:04:30.946Z,142.80
2019-03-23T11:05:30.935Z,138.20
2019-03-23T11:06:30.942Z,142.00
2019-03-23T11:07:30.909Z,142.90
2019-03-23T11:08:30.904Z,142.00
2019-03-23T11:09:30.892Z,133.50
2019-03-23T11:10:30.877Z,135.70
2019-03-23T11:11:30.867Z,128.30
2019-03-23T11:12:30.875Z,128.40
2019-03-23T11:13:30.844Z,125.90
2019-03-23T11:14:30.831Z,115.30
2019-03-23T11:15:30.817Z,117.20
2019-03-23T11:16:30.811Z,116.90
2019-03-23T11:17:30.797Z,119.60
2019-03-23T11:18:30.798Z,115.80
2019-03-23T11:19:30.773Z,114.80
2019-03-23T11:20:30.764Z,118.70
2019-03-23T11:21:30.749Z,113.40
2019-03-23T11:22:30.748Z,117.50
2019-03-23T11:23:30.724Z,114.30
2019-03-23T11:24:30.729Z,114.30
2019-03-23T11:25:30.703Z,112.20
2019-03-23T11:26:30.704Z,118.30
2019-03-23T11:27:30.677Z,112.60
2019-03-23T11:28:30.667Z,114.20
2019-03-23T11:29:30.655Z,114.40
2019-03-23T11:30:30.663Z,110.40
2019-03-23T11:31:31.112Z,114.10
2019-03-23T11:32:30.626Z,115.40
2019-03-23T11:33:30.613Z,107.30
2019-03-23T11:34:30.595Z,114.50
2019-03-23T11:35:30.587Z,107.80
2019-03-23T11:36:30.596Z,107.10
2019-03-23T11:37:30.700Z,105.60
2019-03-23T11:38:30.552Z,110.00
2019-03-23T11:39:30.537Z,107.60
2019-03-23T11:40:30.530Z,106.30
2019-03-23T11:41:30.522Z,104.90
2019-03-23T11:42:30.522Z,109.30
2019-03-23T11:43:30.493Z,105.80
2019-03-23T11:44:30.484Z,102.60
2019-03-23T11:45:30.472Z,106.90
2019-03-23T11:46:30.461Z,111.30
2019-03-23T11:47:30.447Z,105.70
2019-03-23T11:48:30.452Z,102.00
2019-03-23T11:49:30.427Z,100.60
2019-03-23T11:50:30.411Z,100.10
2019-03-23T11:51:30.420Z,99.20
2019-03-23T11:52:30.391Z,95.90
2019-03-23T11:53:30.376Z,98.30
2019-03-23T11:54:30.383Z,95.10
2019-03-23T11:55:30.354Z,92.10
2019-03-23T11:56:30.746Z,89.80
2019-03-23T11:57:30.333Z,93.80
2019-03-23T11:58:30.320Z,94.60
2019-03-23T11:59:30.313Z,93.30
2019-03-23T12:00:30.315Z,95.30
2019-03-23T12:01:30.294Z,94.70
2019-03-23T12:02:30.273Z,93.50
2019-03-23T12:03:30.266Z,91.00
2019-03-23T12:04:30.254Z,91.20
2019-03-23T12:05:30.242Z,92.00
2019-03-23T12:06:30.263Z,90.00
2019-03-23T12:07:30.217Z,89.30
2019-03-23T12:08:30.209Z,91.00
2019-03-23T12:09:30.196Z,89.90
2019-03-23T12:10:30.185Z,88.00
2019-03-23T12:11:30.171Z,83.60
2019-03-23T12:12:30.178Z,83.60
2019-03-23T12:13:30.152Z,86.40
2019-03-23T12:14:30.138Z,88.00
2019-03-23T12:15:30.134Z,87.00
2019-03-23T12:16:30.114Z,89.50
2019-03-23T12:17:30.103Z,86.30
2019-03-23T12:18:30.111Z,88.90
2019-03-23T12:19:30.084Z,86.40
2019-03-23T12:20:30.068Z,87.90
2019-03-23T12:21:30.063Z,86.20
2019-03-23T12:22:30.048Z,87.20
2019-03-23T12:23:30.033Z,85.10
2019-03-23T12:24:30.042Z,86.70
2019-03-23T12:25:30.018Z,86.40
2019-03-23T12:26:30.028Z,87.00
2019-03-23T12:27:29.991Z,87.30
2019-03-23T12:28:29.983Z,85.40
2019-03-23T12:29:29.965Z,87.50
2019-03-23T12:30:29.969Z,84.40
2019-03-23T12:31:29.940Z,86.50
2019-03-23T12:32:29.931Z,84.50
2019-03-23T12:33:29.942Z,83.50
2019-03-23T12:34:29.906Z,84.10
2019-03-23T12:35:29.901Z,86.30
2019-03-23T12:36:29.903Z,85.00
2019-03-23T12:37:29.877Z,83.20